Diamondville, Wyoming
Current Conditions -  °F | °C
As of 1:15 PM on Thursday 29 Jan 2015 (Local Time) from KEMM Reporting Station
Overcast Overcast  
Wind Chill: 30°   Ceiling: 1100
Heat Index: 36°   Visibility: 10mi
Dew Point: 28°   Wind: 7mph
Humidity: 75%   Direction: 20°NNE
Pressure: 30.36"   Gusts: NA
Location:  41.78°N, 110.54°W
Report Text: KEMM 292015Z AUTO 02006KT 10SM OVC011 02/M02 A3036 RMK AO2
Loading
Personal Weather Stations






























Interactive Weather Map New forecast layout! Learn more

10-Day Weather Forecast

Advertisements
Track Severe Weather on mobile